sensor_id;sensor_type;location;lat;lon;timestamp;pressure;altitude;pressure_sealevel;temperature;humidity
43420;BME280;29017;51.514;-0.178;2024-03-22T00:00:05;101723.16;;;13.87;91.47
43420;BME280;29017;51.514;-0.178;2024-03-22T00:02:31;101719.31;;;13.82;90.56
43420;BME280;29017;51.514;-0.178;2024-03-22T00:04:57;101716.66;;;13.82;91.59
43420;BME280;29017;51.514;-0.178;2024-03-22T00:07:22;101712.19;;;13.82;92.65
43420;BME280;29017;51.514;-0.178;2024-03-22T00:09:48;101704.59;;;13.79;92.28
43420;BME280;29017;51.514;-0.178;2024-03-22T00:12:13;101699.44;;;13.78;92.03
43420;BME280;29017;51.514;-0.178;2024-03-22T00:14:39;101692.34;;;13.78;92.70
43420;BME280;29017;51.514;-0.178;2024-03-22T00:17:05;101687.88;;;13.79;92.31
43420;BME280;29017;51.514;-0.178;2024-03-22T00:19:30;101694.84;;;13.80;91.09
43420;BME280;29017;51.514;-0.178;2024-03-22T00:21:56;101682.91;;;13.76;90.62
43420;BME280;29017;51.514;-0.178;2024-03-22T00:24:21;101683.75;;;13.76;90.24
43420;BME280;29017;51.514;-0.178;2024-03-22T00:26:47;101674.59;;;13.70;89.87
43420;BME280;29017;51.514;-0.178;2024-03-22T00:29:13;101664.63;;;13.64;89.57
43420;BME280;29017;51.514;-0.178;2024-03-22T00:31:38;101664.75;;;13.63;90.62
43420;BME280;29017;51.514;-0.178;2024-03-22T00:34:04;101659.31;;;13.64;91.67
43420;BME280;29017;51.514;-0.178;2024-03-22T00:36:29;101655.38;;;13.68;91.10
43420;BME280;29017;51.514;-0.178;2024-03-22T00:38:55;101656.53;;;13.66;90.29
43420;BME280;29017;51.514;-0.178;2024-03-22T00:41:20;101655.84;;;13.64;90.59
43420;BME280;29017;51.514;-0.178;2024-03-22T00:43:46;101643.59;;;13.63;90.57
43420;BME280;29017;51.514;-0.178;2024-03-22T00:46:11;101648.75;;;13.64;90.74
43420;BME280;29017;51.514;-0.178;2024-03-22T00:48:37;101650.88;;;13.61;90.96
43420;BME280;29017;51.514;-0.178;2024-03-22T00:51:02;101639.94;;;13.56;91.17
43420;BME280;29017;51.514;-0.178;2024-03-22T00:53:29;101647.16;;;13.54;91.45
43420;BME280;29017;51.514;-0.178;2024-03-22T00:55:55;101632.41;;;13.51;91.49
43420;BME280;29017;51.514;-0.178;2024-03-22T00:58:21;101638.84;;;13.49;92.11
43420;BME280;29017;51.514;-0.178;2024-03-22T01:00:50;101634.69;;;13.46;91.80
43420;BME280;29017;51.514;-0.178;2024-03-22T01:03:16;101621.63;;;13.45;92.76
43420;BME280;29017;51.514;-0.178;2024-03-22T01:05:42;101617.19;;;13.45;93.08
43420;BME280;29017;51.514;-0.178;2024-03-22T01:08:10;101610.91;;;13.46;92.79
43420;BME280;29017;51.514;-0.178;2024-03-22T01:10:36;101610.22;;;13.44;92.51
43420;BME280;29017;51.514;-0.178;2024-03-22T01:13:01;101606.91;;;13.42;92.96
43420;BME280;29017;51.514;-0.178;2024-03-22T01:15:27;101593.69;;;13.42;93.55
43420;BME280;29017;51.514;-0.178;2024-03-22T01:17:53;101604.94;;;13.44;93.67
43420;BME280;29017;51.514;-0.178;2024-03-22T01:20:22;101598.81;;;13.44;93.51
43420;BME280;29017;51.514;-0.178;2024-03-22T01:22:50;101601.00;;;13.48;92.65
43420;BME280;29017;51.514;-0.178;2024-03-22T01:25:18;101603.78;;;13.47;92.08
43420;BME280;29017;51.514;-0.178;2024-03-22T01:27:44;101604.13;;;13.44;92.12
43420;BME280;29017;51.514;-0.178;2024-03-22T01:30:09;101594.50;;;13.43;92.46
43420;BME280;29017;51.514;-0.178;2024-03-22T01:32:36;101584.78;;;13.43;91.56
43420;BME280;29017;51.514;-0.178;2024-03-22T01:35:01;101583.28;;;13.41;92.16
43420;BME280;29017;51.514;-0.178;2024-03-22T01:37:27;101587.03;;;13.38;92.14
43420;BME280;29017;51.514;-0.178;2024-03-22T01:39:53;101584.72;;;13.35;91.38
43420;BME280;29017;51.514;-0.178;2024-03-22T01:42:18;101586.53;;;13.35;91.90
43420;BME280;29017;51.514;-0.178;2024-03-22T01:44:44;101593.91;;;13.31;91.54
43420;BME280;29017;51.514;-0.178;2024-03-22T01:47:10;101592.56;;;13.27;91.31
43420;BME280;29017;51.514;-0.178;2024-03-22T01:49:39;101576.88;;;13.25;91.29
43420;BME280;29017;51.514;-0.178;2024-03-22T01:52:05;101571.03;;;13.22;91.07
43420;BME280;29017;51.514;-0.178;2024-03-22T01:54:33;101558.13;;;13.19;91.24
43420;BME280;29017;51.514;-0.178;2024-03-22T01:57:02;101569.53;;;13.19;91.34
43420;BME280;29017;51.514;-0.178;2024-03-22T01:59:28;101572.31;;;13.18;91.43
43420;BME280;29017;51.514;-0.178;2024-03-22T02:01:54;101566.91;;;13.19;91.20
43420;BME280;29017;51.514;-0.178;2024-03-22T02:04:19;101561.75;;;13.18;90.11
43420;BME280;29017;51.514;-0.178;2024-03-22T02:06:45;101563.03;;;13.14;89.77
43420;BME280;29017;51.514;-0.178;2024-03-22T02:09:11;101577.97;;;13.05;89.45
43420;BME280;29017;51.514;-0.178;2024-03-22T02:11:36;101568.97;;;12.98;89.77
43420;BME280;29017;51.514;-0.178;2024-03-22T02:14:05;101573.03;;;12.93;90.29
43420;BME280;29017;51.514;-0.178;2024-03-22T02:16:30;101570.09;;;12.96;91.42
43420;BME280;29017;51.514;-0.178;2024-03-22T02:18:56;101569.94;;;12.97;91.78
43420;BME280;29017;51.514;-0.178;2024-03-22T02:21:21;101568.81;;;13.00;91.15
43420;BME280;29017;51.514;-0.178;2024-03-22T02:23:47;101576.59;;;13.01;90.50
43420;BME280;29017;51.514;-0.178;2024-03-22T02:26:13;101568.81;;;13.00;89.99
43420;BME280;29017;51.514;-0.178;2024-03-22T02:28:39;101562.72;;;12.99;90.04
43420;BME280;29017;51.514;-0.178;2024-03-22T02:31:04;101554.94;;;12.98;89.55
43420;BME280;29017;51.514;-0.178;2024-03-22T02:33:30;101548.66;;;12.99;90.25
43420;BME280;29017;51.514;-0.178;2024-03-22T02:35:56;101545.78;;;12.92;90.05
43420;BME280;29017;51.514;-0.178;2024-03-22T02:38:22;101543.28;;;12.91;90.38
43420;BME280;29017;51.514;-0.178;2024-03-22T02:40:48;101546.47;;;12.94;91.22
43420;BME280;29017;51.514;-0.178;2024-03-22T02:43:14;101534.94;;;12.95;90.37
43420;BME280;29017;51.514;-0.178;2024-03-22T02:45:39;101540.22;;;12.95;90.03
43420;BME280;29017;51.514;-0.178;2024-03-22T02:48:05;101522.72;;;12.94;90.28
43420;BME280;29017;51.514;-0.178;2024-03-22T02:50:35;101522.53;;;12.96;89.80
43420;BME280;29017;51.514;-0.178;2024-03-22T02:53:01;101526.19;;;12.95;89.83
43420;BME280;29017;51.514;-0.178;2024-03-22T02:55:26;101509.19;;;12.97;89.97
43420;BME280;29017;51.514;-0.178;2024-03-22T02:57:52;101518.09;;;12.96;89.05
43420;BME280;29017;51.514;-0.178;2024-03-22T03:00:17;101510.00;;;12.98;88.73
43420;BME280;29017;51.514;-0.178;2024-03-22T03:02:43;101502.78;;;13.00;89.78
43420;BME280;29017;51.514;-0.178;2024-03-22T03:05:09;101500.81;;;13.02;89.41
43420;BME280;29017;51.514;-0.178;2024-03-22T03:07:35;101505.56;;;12.98;88.62
43420;BME280;29017;51.514;-0.178;2024-03-22T03:10:01;101508.53;;;12.95;88.68
43420;BME280;29017;51.514;-0.178;2024-03-22T03:12:26;101506.69;;;12.96;88.55
43420;BME280;29017;51.514;-0.178;2024-03-22T03:14:52;101507.50;;;12.96;88.67
43420;BME280;29017;51.514;-0.178;2024-03-22T03:17:17;101509.03;;;12.99;89.02
43420;BME280;29017;51.514;-0.178;2024-03-22T03:19:43;101514.19;;;13.00;88.68
43420;BME280;29017;51.514;-0.178;2024-03-22T03:22:09;101508.72;;;13.02;88.94
43420;BME280;29017;51.514;-0.178;2024-03-22T03:24:35;101509.69;;;13.01;88.59
43420;BME280;29017;51.514;-0.178;2024-03-22T03:27:00;101507.75;;;13.03;88.13
43420;BME280;29017;51.514;-0.178;2024-03-22T03:29:26;101504.13;;;13.04;87.72
43420;BME280;29017;51.514;-0.178;2024-03-22T03:31:51;101502.59;;;13.01;87.44
43420;BME280;29017;51.514;-0.178;2024-03-22T03:34:17;101499.00;;;13.02;87.49
43420;BME280;29017;51.514;-0.178;2024-03-22T03:36:43;101491.53;;;12.98;87.02
43420;BME280;29017;51.514;-0.178;2024-03-22T03:39:08;101490.84;;;12.96;87.15
43420;BME280;29017;51.514;-0.178;2024-03-22T03:41:34;101489.84;;;12.97;87.39
43420;BME280;29017;51.514;-0.178;2024-03-22T03:43:59;101490.84;;;12.96;87.27
43420;BME280;29017;51.514;-0.178;2024-03-22T03:46:25;101488.06;;;12.97;86.25
43420;BME280;29017;51.514;-0.178;2024-03-22T03:48:51;101490.56;;;12.99;85.86
43420;BME280;29017;51.514;-0.178;2024-03-22T03:51:16;101481.78;;;12.98;85.39
43420;BME280;29017;51.514;-0.178;2024-03-22T03:53:42;101473.72;;;13.00;85.50
43420;BME280;29017;51.514;-0.178;2024-03-22T03:56:08;101467.75;;;12.98;85.73
43420;BME280;29017;51.514;-0.178;2024-03-22T03:58:33;101477.47;;;12.97;85.96
43420;BME280;29017;51.514;-0.178;2024-03-22T04:00:59;101472.19;;;12.97;84.82
43420;BME280;29017;51.514;-0.178;2024-03-22T04:03:29;101457.31;;;12.96;85.18
43420;BME280;29017;51.514;-0.178;2024-03-22T04:05:58;101470.03;;;12.93;84.75
43420;BME280;29017;51.514;-0.178;2024-03-22T04:08:27;101467.38;;;12.93;84.65
43420;BME280;29017;51.514;-0.178;2024-03-22T04:10:53;101464.88;;;12.91;84.63
43420;BME280;29017;51.514;-0.178;2024-03-22T04:13:21;101469.03;;;12.94;84.75
43420;BME280;29017;51.514;-0.178;2024-03-22T04:15:47;101466.25;;;12.95;84.70
43420;BME280;29017;51.514;-0.178;2024-03-22T04:18:12;101465.44;;;12.95;84.71
43420;BME280;29017;51.514;-0.178;2024-03-22T04:20:38;101462.78;;;12.95;84.54
43420;BME280;29017;51.514;-0.178;2024-03-22T04:23:03;101468.72;;;12.97;84.51
43420;BME280;29017;51.514;-0.178;2024-03-22T04:25:29;101468.59;;;12.98;84.82
43420;BME280;29017;51.514;-0.178;2024-03-22T04:27:54;101469.28;;;13.00;83.99
43420;BME280;29017;51.514;-0.178;2024-03-22T04:30:20;101459.00;;;12.97;84.10
43420;BME280;29017;51.514;-0.178;2024-03-22T04:32:46;101453.72;;;12.97;84.72
43420;BME280;29017;51.514;-0.178;2024-03-22T04:35:12;101463.16;;;13.00;84.40
43420;BME280;29017;51.514;-0.178;2024-03-22T04:37:37;101454.91;;;13.03;84.51
43420;BME280;29017;51.514;-0.178;2024-03-22T04:40:03;101450.31;;;13.05;84.03
43420;BME280;29017;51.514;-0.178;2024-03-22T04:42:29;101461.72;;;13.05;83.47
43420;BME280;29017;51.514;-0.178;2024-03-22T04:44:54;101468.63;;;13.06;84.06
43420;BME280;29017;51.514;-0.178;2024-03-22T04:47:20;101451.16;;;13.05;83.38
43420;BME280;29017;51.514;-0.178;2024-03-22T04:49:45;101459.72;;;13.07;84.37
43420;BME280;29017;51.514;-0.178;2024-03-22T04:52:11;101457.41;;;13.04;83.65
43420;BME280;29017;51.514;-0.178;2024-03-22T04:54:40;101450.78;;;13.00;82.93
43420;BME280;29017;51.514;-0.178;2024-03-22T04:57:05;101453.78;;;13.05;83.75
43420;BME280;29017;51.514;-0.178;2024-03-22T04:59:31;101454.44;;;13.07;83.99
43420;BME280;29017;51.514;-0.178;2024-03-22T05:02:00;101450.69;;;13.10;83.11
43420;BME280;29017;51.514;-0.178;2024-03-22T05:04:29;101446.09;;;13.12;84.00
43420;BME280;29017;51.514;-0.178;2024-03-22T05:06:55;101452.91;;;13.14;83.24
43420;BME280;29017;51.514;-0.178;2024-03-22T05:09:20;101450.25;;;13.14;83.21
43420;BME280;29017;51.514;-0.178;2024-03-22T05:11:47;101442.97;;;13.16;83.53
43420;BME280;29017;51.514;-0.178;2024-03-22T05:14:20;101443.81;;;13.17;82.92
43420;BME280;29017;51.514;-0.178;2024-03-22T05:16:46;101448.13;;;13.18;81.97
43420;BME280;29017;51.514;-0.178;2024-03-22T05:19:12;101445.63;;;13.16;81.54
43420;BME280;29017;51.514;-0.178;2024-03-22T05:21:37;101442.31;;;13.14;81.93
43420;BME280;29017;51.514;-0.178;2024-03-22T05:24:03;101443.66;;;13.18;82.22
43420;BME280;29017;51.514;-0.178;2024-03-22T05:26:28;101438.38;;;13.18;81.85
43420;BME280;29017;51.514;-0.178;2024-03-22T05:28:57;101436.22;;;13.14;81.61
43420;BME280;29017;51.514;-0.178;2024-03-22T05:31:23;101440.81;;;13.12;81.74
43420;BME280;29017;51.514;-0.178;2024-03-22T05:33:48;101436.66;;;13.09;81.37
43420;BME280;29017;51.514;-0.178;2024-03-22T05:36:14;101436.66;;;13.09;81.65
43420;BME280;29017;51.514;-0.178;2024-03-22T05:38:39;101441.94;;;13.09;81.43
43420;BME280;29017;51.514;-0.178;2024-03-22T05:41:05;101436.28;;;13.04;81.42
43420;BME280;29017;51.514;-0.178;2024-03-22T05:43:31;101436.28;;;13.04;81.85
43420;BME280;29017;51.514;-0.178;2024-03-22T05:45:56;101436.78;;;13.08;82.67
43420;BME280;29017;51.514;-0.178;2024-03-22T05:48:22;101435.66;;;13.10;82.21
43420;BME280;29017;51.514;-0.178;2024-03-22T05:50:47;101440.53;;;13.15;83.06
43420;BME280;29017;51.514;-0.178;2024-03-22T05:53:13;101431.59;;;13.16;82.26
43420;BME280;29017;51.514;-0.178;2024-03-22T05:55:38;101431.94;;;13.21;82.64
43420;BME280;29017;51.514;-0.178;2024-03-22T05:58:04;101434.59;;;13.21;82.35
43420;BME280;29017;51.514;-0.178;2024-03-22T06:00:30;101434.44;;;13.22;82.07
43420;BME280;29017;51.514;-0.178;2024-03-22T06:02:56;101432.50;;;13.24;82.32
43420;BME280;29017;51.514;-0.178;2024-03-22T06:05:21;101437.09;;;13.22;81.89
43420;BME280;29017;51.514;-0.178;2024-03-22T06:07:47;101439.88;;;13.21;81.12
43420;BME280;29017;51.514;-0.178;2024-03-22T06:10:13;101436.44;;;13.20;81.61
43420;BME280;29017;51.514;-0.178;2024-03-22T06:12:38;101437.41;;;13.19;81.77
43420;BME280;29017;51.514;-0.178;2024-03-22T06:15:04;101430.78;;;13.15;81.70
43420;BME280;29017;51.514;-0.178;2024-03-22T06:17:34;101425.63;;;13.14;82.49
43420;BME280;29017;51.514;-0.178;2024-03-22T06:19:59;101423.16;;;13.12;82.76
43420;BME280;29017;51.514;-0.178;2024-03-22T06:22:26;101410.28;;;13.17;82.77
43420;BME280;29017;51.514;-0.178;2024-03-22T06:24:52;101411.81;;;13.20;83.42
43420;BME280;29017;51.514;-0.178;2024-03-22T06:27:18;101409.16;;;13.20;82.95
43420;BME280;29017;51.514;-0.178;2024-03-22T06:29:44;101414.47;;;13.20;83.56
43420;BME280;29017;51.514;-0.178;2024-03-22T06:32:09;101410.97;;;13.19;83.83
43420;BME280;29017;51.514;-0.178;2024-03-22T06:34:35;101413.78;;;13.18;83.84
43420;BME280;29017;51.514;-0.178;2024-03-22T06:37:01;101413.78;;;13.18;84.92
43420;BME280;29017;51.514;-0.178;2024-03-22T06:39:26;101412.94;;;13.17;84.40
43420;BME280;29017;51.514;-0.178;2024-03-22T06:41:52;101415.59;;;13.17;84.63
43420;BME280;29017;51.514;-0.178;2024-03-22T06:44:17;101411.81;;;13.20;85.51
43420;BME280;29017;51.514;-0.178;2024-03-22T06:46:43;101413.44;;;13.21;84.72
43420;BME280;29017;51.514;-0.178;2024-03-22T06:49:08;101407.53;;;13.27;84.00
43420;BME280;29017;51.514;-0.178;2024-03-22T06:51:34;101410.72;;;13.31;83.63
43420;BME280;29017;51.514;-0.178;2024-03-22T06:54:00;101417.00;;;13.30;83.18
43420;BME280;29017;51.514;-0.178;2024-03-22T06:56:25;101410.88;;;13.29;83.81
43420;BME280;29017;51.514;-0.178;2024-03-22T06:58:51;101412.91;;;13.35;84.91
43420;BME280;29017;51.514;-0.178;2024-03-22T07:01:16;101415.53;;;13.35;84.38
43420;BME280;29017;51.514;-0.178;2024-03-22T07:03:42;101410.63;;;13.40;84.55
43420;BME280;29017;51.514;-0.178;2024-03-22T07:06:11;101418.69;;;13.39;83.62
43420;BME280;29017;51.514;-0.178;2024-03-22T07:08:36;101411.88;;;13.36;83.41
43420;BME280;29017;51.514;-0.178;2024-03-22T07:11:04;101414.34;;;13.30;83.52
43420;BME280;29017;51.514;-0.178;2024-03-22T07:13:30;101405.09;;;13.25;83.89
43420;BME280;29017;51.514;-0.178;2024-03-22T07:15:56;101398.97;;;13.25;83.50
43420;BME280;29017;51.514;-0.178;2024-03-22T07:18:21;101400.78;;;13.24;83.47
43420;BME280;29017;51.514;-0.178;2024-03-22T07:20:47;101403.06;;;13.19;83.21
43420;BME280;29017;51.514;-0.178;2024-03-22T07:23:13;101405.81;;;13.36;89.15
43420;BME280;29017;51.514;-0.178;2024-03-22T07:25:38;101410.50;;;13.50;90.47
43420;BME280;29017;51.514;-0.178;2024-03-22T07:28:04;101405.31;;;13.66;90.68
43420;BME280;29017;51.514;-0.178;2024-03-22T07:30:30;101407.97;;;13.74;89.49
43420;BME280;29017;51.514;-0.178;2024-03-22T07:32:56;101412.28;;;13.75;85.86
43420;BME280;29017;51.514;-0.178;2024-03-22T07:35:21;101402.81;;;13.73;83.32
43420;BME280;29017;51.514;-0.178;2024-03-22T07:37:47;101405.94;;;13.68;83.68
43420;BME280;29017;51.514;-0.178;2024-03-22T07:40:13;101408.56;;;13.60;83.45
43420;BME280;29017;51.514;-0.178;2024-03-22T07:42:39;101401.63;;;13.59;83.20
43420;BME280;29017;51.514;-0.178;2024-03-22T07:45:04;101393.19;;;13.55;82.97
43420;BME280;29017;51.514;-0.178;2024-03-22T07:47:30;101397.28;;;13.50;82.97
43420;BME280;29017;51.514;-0.178;2024-03-22T07:49:55;101400.06;;;13.48;83.49
43420;BME280;29017;51.514;-0.178;2024-03-22T07:52:21;101402.56;;;13.50;84.68
43420;BME280;29017;51.514;-0.178;2024-03-22T07:54:47;101401.41;;;13.52;84.50
43420;BME280;29017;51.514;-0.178;2024-03-22T07:57:12;101401.94;;;13.56;83.50
43420;BME280;29017;51.514;-0.178;2024-03-22T07:59:38;101400.28;;;13.55;83.96
43420;BME280;29017;51.514;-0.178;2024-03-22T08:02:03;101401.13;;;13.55;84.24
43420;BME280;29017;51.514;-0.178;2024-03-22T08:04:29;101406.56;;;13.54;84.26
43420;BME280;29017;51.514;-0.178;2024-03-22T08:06:54;101405.88;;;13.52;85.12
43420;BME280;29017;51.514;-0.178;2024-03-22T08:09:20;101409.97;;;13.46;84.91
43420;BME280;29017;51.514;-0.178;2024-03-22T08:11:46;101407.50;;;13.45;85.52
43420;BME280;29017;51.514;-0.178;2024-03-22T08:14:11;101403.88;;;13.46;85.55
43420;BME280;29017;51.514;-0.178;2024-03-22T08:16:37;101416.09;;;13.47;85.00
43420;BME280;29017;51.514;-0.178;2024-03-22T08:19:03;101417.59;;;13.49;86.20
43420;BME280;29017;51.514;-0.178;2024-03-22T08:21:28;101417.75;;;13.48;85.73
43420;BME280;29017;51.514;-0.178;2024-03-22T08:23:54;101419.25;;;13.50;86.17
43420;BME280;29017;51.514;-0.178;2024-03-22T08:26:20;101412.16;;;13.51;86.00
43420;BME280;29017;51.514;-0.178;2024-03-22T08:28:46;101418.59;;;13.56;86.49
43420;BME280;29017;51.514;-0.178;2024-03-22T08:31:11;101413.31;;;13.56;86.67
43420;BME280;29017;51.514;-0.178;2024-03-22T08:33:37;101427.38;;;13.57;86.80
43420;BME280;29017;51.514;-0.178;2024-03-22T08:36:03;101412.00;;;13.52;86.78
43420;BME280;29017;51.514;-0.178;2024-03-22T08:38:28;101417.28;;;13.52;86.76
43420;BME280;29017;51.514;-0.178;2024-03-22T08:40:54;101422.41;;;13.54;88.26
43420;BME280;29017;51.514;-0.178;2024-03-22T08:43:20;101417.97;;;13.54;87.79
43420;BME280;29017;51.514;-0.178;2024-03-22T08:45:48;101415.47;;;13.53;87.59
43420;BME280;29017;51.514;-0.178;2024-03-22T08:48:14;101413.50;;;13.55;88.52
43420;BME280;29017;51.514;-0.178;2024-03-22T08:50:44;101412.53;;;13.56;88.55
43420;BME280;29017;51.514;-0.178;2024-03-22T08:53:09;101406.44;;;13.63;89.83
43420;BME280;29017;51.514;-0.178;2024-03-22T08:55:35;101414.38;;;13.71;90.21
43420;BME280;29017;51.514;-0.178;2024-03-22T08:58:00;101417.03;;;13.71;90.32
43420;BME280;29017;51.514;-0.178;2024-03-22T09:00:29;101409.44;;;13.68;91.00
43420;BME280;29017;51.514;-0.178;2024-03-22T09:02:55;101403.00;;;13.71;91.18
43420;BME280;29017;51.514;-0.178;2024-03-22T09:05:21;101408.28;;;13.71;91.41
43420;BME280;29017;51.514;-0.178;2024-03-22T09:07:46;101409.63;;;13.75;92.13
43420;BME280;29017;51.514;-0.178;2024-03-22T09:10:13;101405.31;;;13.74;92.36
43420;BME280;29017;51.514;-0.178;2024-03-22T09:12:39;101413.25;;;13.74;92.40
43420;BME280;29017;51.514;-0.178;2024-03-22T09:15:07;101403.34;;;13.76;93.17
43420;BME280;29017;51.514;-0.178;2024-03-22T09:17:33;101406.66;;;13.78;92.48
43420;BME280;29017;51.514;-0.178;2024-03-22T09:19:58;101399.53;;;13.70;92.48
43420;BME280;29017;51.514;-0.178;2024-03-22T09:22:24;101395.53;;;13.66;92.30
43420;BME280;29017;51.514;-0.178;2024-03-22T09:24:50;101391.91;;;13.67;92.30
43420;BME280;29017;51.514;-0.178;2024-03-22T09:27:20;101400.50;;;13.69;92.81
43420;BME280;29017;51.514;-0.178;2024-03-22T09:29:49;101402.81;;;13.73;93.59
43420;BME280;29017;51.514;-0.178;2024-03-22T09:32:15;101399.34;;;13.72;93.89
43420;BME280;29017;51.514;-0.178;2024-03-22T09:34:40;101399.06;;;13.75;93.50
43420;BME280;29017;51.514;-0.178;2024-03-22T09:37:06;101392.09;;;13.74;92.66
43420;BME280;29017;51.514;-0.178;2024-03-22T09:39:31;101394.41;;;13.69;92.53
43420;BME280;29017;51.514;-0.178;2024-03-22T09:41:58;101389.44;;;13.66;92.77
43420;BME280;29017;51.514;-0.178;2024-03-22T09:44:24;101389.59;;;13.64;92.81
43420;BME280;29017;51.514;-0.178;2024-03-22T09:46:52;101386.09;;;13.64;92.47
43420;BME280;29017;51.514;-0.178;2024-03-22T09:49:27;101394.88;;;13.64;92.97
43420;BME280;29017;51.514;-0.178;2024-03-22T09:51:55;101395.53;;;13.66;92.72
43420;BME280;29017;51.514;-0.178;2024-03-22T09:54:29;101388.75;;;13.64;92.48
43420;BME280;29017;51.514;-0.178;2024-03-22T09:57:00;101385.78;;;13.67;93.54
43420;BME280;29017;51.514;-0.178;2024-03-22T09:59:28;101381.66;;;13.73;94.54
43420;BME280;29017;51.514;-0.178;2024-03-22T10:01:58;101389.44;;;13.74;94.61
43420;BME280;29017;51.514;-0.178;2024-03-22T10:04:26;101389.81;;;13.79;94.93
43420;BME280;29017;51.514;-0.178;2024-03-22T10:06:53;101386.31;;;13.79;94.47
43420;BME280;29017;51.514;-0.178;2024-03-22T10:09:27;101378.72;;;13.76;95.12
43420;BME280;29017;51.514;-0.178;2024-03-22T10:11:56;101383.34;;;13.74;95.03
43420;BME280;29017;51.514;-0.178;2024-03-22T10:14:28;101376.38;;;13.73;95.40
43420;BME280;29017;51.514;-0.178;2024-03-22T10:16:56;101378.03;;;13.74;95.73
43420;BME280;29017;51.514;-0.178;2024-03-22T10:19:23;101377.34;;;13.71;95.56
43420;BME280;29017;51.514;-0.178;2024-03-22T10:22:03;101376.38;;;13.73;96.36
43420;BME280;29017;51.514;-0.178;2024-03-22T10:24:32;101380.00;;;13.71;96.82
43420;BME280;29017;51.514;-0.178;2024-03-22T10:27:03;101367.63;;;13.72;97.29
43420;BME280;29017;51.514;-0.178;2024-03-22T10:29:42;101370.09;;;13.65;97.04
43420;BME280;29017;51.514;-0.178;2024-03-22T10:32:10;101372.25;;;13.70;98.57
43420;BME280;29017;51.514;-0.178;2024-03-22T10:34:42;101370.09;;;13.74;99.03
43420;BME280;29017;51.514;-0.178;2024-03-22T10:37:13;101367.31;;;13.75;99.07
43420;BME280;29017;51.514;-0.178;2024-03-22T10:39:42;101365.31;;;13.77;99.37
43420;BME280;29017;51.514;-0.178;2024-03-22T10:42:12;101374.41;;;13.75;99.00
43420;BME280;29017;51.514;-0.178;2024-03-22T10:44:41;101375.06;;;13.77;99.44
43420;BME280;29017;51.514;-0.178;2024-03-22T10:47:09;101385.81;;;13.75;99.51
43420;BME280;29017;51.514;-0.178;2024-03-22T10:49:38;101380.06;;;13.80;99.74
43420;BME280;29017;51.514;-0.178;2024-03-22T10:52:06;101384.03;;;13.84;99.51
43420;BME280;29017;51.514;-0.178;2024-03-22T10:54:36;101379.09;;;13.89;99.48
43420;BME280;29017;51.514;-0.178;2024-03-22T10:57:06;101372.47;;;13.93;99.18
43420;BME280;29017;51.514;-0.178;2024-03-22T10:59:34;101373.00;;;13.96;98.74
43420;BME280;29017;51.514;-0.178;2024-03-22T11:02:05;101370.34;;;13.96;98.08
43420;BME280;29017;51.514;-0.178;2024-03-22T11:04:33;101370.50;;;13.95;96.85
43420;BME280;29017;51.514;-0.178;2024-03-22T11:07:02;101368.34;;;13.90;95.88
43420;BME280;29017;51.514;-0.178;2024-03-22T11:09:30;101363.38;;;13.87;94.80
43420;BME280;29017;51.514;-0.178;2024-03-22T11:11:58;101385.22;;;13.89;95.03
43420;BME280;29017;51.514;-0.178;2024-03-22T11:14:27;101383.88;;;13.85;94.93
43420;BME280;29017;51.514;-0.178;2024-03-22T11:16:55;101378.38;;;13.70;92.68
43420;BME280;29017;51.514;-0.178;2024-03-22T11:19:23;101370.56;;;13.61;92.21
43420;BME280;29017;51.514;-0.178;2024-03-22T11:21:51;101369.88;;;13.59;91.17
43420;BME280;29017;51.514;-0.178;2024-03-22T11:24:25;101366.56;;;13.57;91.78
43420;BME280;29017;51.514;-0.178;2024-03-22T11:26:55;101358.34;;;13.60;91.37
43420;BME280;29017;51.514;-0.178;2024-03-22T11:29:25;101362.47;;;13.62;92.09
43420;BME280;29017;51.514;-0.178;2024-03-22T11:31:52;101368.28;;;13.66;92.20
43420;BME280;29017;51.514;-0.178;2024-03-22T11:34:23;101367.94;;;13.69;92.19
43420;BME280;29017;51.514;-0.178;2024-03-22T11:36:53;101361.50;;;13.71;92.71
43420;BME280;29017;51.514;-0.178;2024-03-22T11:39:21;101373.09;;;13.70;92.36
43420;BME280;29017;51.514;-0.178;2024-03-22T11:41:49;101373.09;;;13.70;92.14
43420;BME280;29017;51.514;-0.178;2024-03-22T11:44:17;101362.31;;;13.64;90.41
43420;BME280;29017;51.514;-0.178;2024-03-22T11:46:44;101369.56;;;13.62;88.58
43420;BME280;29017;51.514;-0.178;2024-03-22T11:49:10;101375.84;;;13.61;88.65
43420;BME280;29017;51.514;-0.178;2024-03-22T11:51:35;101374.00;;;13.61;89.02
43420;BME280;29017;51.514;-0.178;2024-03-22T11:54:02;101361.81;;;13.60;88.89
43420;BME280;29017;51.514;-0.178;2024-03-22T11:56:28;101359.31;;;13.59;88.75
43420;BME280;29017;51.514;-0.178;2024-03-22T11:59:00;101369.75;;;13.60;89.92
43420;BME280;29017;51.514;-0.178;2024-03-22T12:01:26;101357.84;;;13.64;90.11
43420;BME280;29017;51.514;-0.178;2024-03-22T12:03:52;101352.41;;;13.66;90.76
43420;BME280;29017;51.514;-0.178;2024-03-22T12:06:17;101351.09;;;13.70;89.56
43420;BME280;29017;51.514;-0.178;2024-03-22T12:08:43;101351.75;;;13.72;89.59
43420;BME280;29017;51.514;-0.178;2024-03-22T12:11:09;101339.69;;;13.78;90.96
43420;BME280;29017;51.514;-0.178;2024-03-22T12:13:35;101341.03;;;13.82;91.29
43420;BME280;29017;51.514;-0.178;2024-03-22T12:16:01;101344.19;;;13.85;90.60
43420;BME280;29017;51.514;-0.178;2024-03-22T12:18:27;101346.53;;;13.96;91.54
43420;BME280;29017;51.514;-0.178;2024-03-22T12:20:53;101354.81;;;14.01;91.69
43420;BME280;29017;51.514;-0.178;2024-03-22T12:23:18;101336.66;;;14.06;91.19
43420;BME280;29017;51.514;-0.178;2024-03-22T12:25:44;101331.16;;;14.08;89.76
43420;BME280;29017;51.514;-0.178;2024-03-22T12:28:09;101332.53;;;14.20;90.08
43420;BME280;29017;51.514;-0.178;2024-03-22T12:30:35;101325.94;;;14.32;89.88
43420;BME280;29017;51.514;-0.178;2024-03-22T12:33:01;101333.88;;;14.40;88.35
43420;BME280;29017;51.514;-0.178;2024-03-22T12:35:26;101319.66;;;14.49;88.29